메인 페이지
METAR-TAF:

METAR-TAF

공항 :

Tallahassee Regional Airport

탤러해시, 플로리다, 미국

위도: 30-23-35N, 경도: 084-21-12W, 고도: 24m

현재 날씨관측

예보는 7분 전, 14:53시(UTC)에 발표되었습니다.
3kt
온도 28°C
습도 66%
기압 1017 hPa
시정: 16.1km
고도 1400ft 상공 구름 많음

METAR: KTLH 301453Z 35003KT 10SM BKN014 28/21 A3004 RMK AO2 SLP173 T02780206 50001 $

시각: 11:00 (15:00 UTC)

예보

예보는 3 시간 36분 전, 11:24시(UTC)에 발표되었습니다.
예보 대상 시간: 30일 12시부터 31일 12시까지 (UTC)
kt
시정: 0.8km
고도 200ft 상공
안개
일시적
30일 12시부터 30일 13시까지 (UTC)
시정: 0.4km
고도 100ft 상공
안개
30일 1400시부터 (UTC)
서북서4kt
시정: 10km
고도 2400ft 상공 구름 보통
30일 1800시부터 (UTC)
남서2kt
시정: 10km
고도 4000ft 상공 구름 많음, 적란운.
시계 내 뇌우
31일 0100시부터 (UTC)
kt
시정: 10km
고도 5000ft 상공 구름 보통

TAF: KTLH 301124Z 3012/3112 00000KT 1/2SM FG VV002 TEMPO 3012/3013 1/4SM FG VV001 FM301400 29004KT P6SM SCT024 FM301800 22002KT P6SM VCTS BKN040CB FM310100 00000KT P6SM SCT050

4,000개 이상의 공항 관측 자료 및 예보 (METAR 및 TAF 보고).

지도상에서 검색 가능한 기상관측소가 노란 점과 빨간 점으로 표시되어 있습니다.

기상관측소 명을 보려면 표시 위로 마우스를 이동하세요.

날씨 관측과 예보를 보려면 클릭하세요.

지도 변경 : 확대하려면 엑스 표시가 있는 녹색 버튼, 축소하려면 빼기 표시가 있는 녹색 버튼, 다음 페이지의 지도를 보려면 녹색 화살표를 클릭하세요.


METAR-TAF: